Terminal Aerodrome Forecast
Issued by NWS

Home | Current Version | Previous Version | Text Only | Print | Product List | Glossary On
Versions: 1 2 3 4 5 6 7 8 9 10 11 12 13 14 15 16 17 18 19
000
FTUS41 KBOX 201732
TAFFMH
TAF
KFMH 201732Z 2018/2118 30009KT P6SM SKC
     FM202300 25006KT P6SM SCT060
     FM210500 00000KT P6SM SKC
     FM211300 29005KT P6SM FEW250=

USA.gov is the U.S. government's official web portal to all federal, state and local government web resources and services.